createdAt,value
2023-02-08T00:00:05.517Z,92.13
2023-02-08T00:02:32.004Z,91.86
2023-02-08T00:04:58.522Z,92.79
2023-02-08T00:07:25.691Z,92.27
2023-02-08T00:09:52.122Z,92.30
2023-02-08T00:12:18.592Z,90.62
2023-02-08T00:14:45.025Z,90.07
2023-02-08T00:17:11.458Z,92.26
2023-02-08T00:19:37.920Z,92.60
2023-02-08T00:22:04.327Z,92.67
2023-02-08T00:24:30.812Z,93.43
2023-02-08T00:26:57.263Z,94.18
2023-02-08T00:29:23.755Z,91.99
2023-02-08T00:31:50.404Z,93.95
2023-02-08T00:34:16.846Z,94.16
2023-02-08T00:36:43.260Z,93.71
2023-02-08T00:39:09.722Z,92.51
2023-02-08T00:41:36.161Z,93.17
2023-02-08T00:44:05.517Z,92.86
2023-02-08T00:46:32.088Z,94.14
2023-02-08T00:48:58.502Z,94.14
2023-02-08T00:51:24.896Z,93.12
2023-02-08T00:53:51.411Z,93.48
2023-02-08T00:56:17.888Z,93.21
2023-02-08T00:58:45.931Z,93.23
2023-02-08T01:01:13.254Z,92.57
2023-02-08T01:03:41.632Z,92.20
2023-02-08T01:06:11.776Z,93.67
2023-02-08T01:08:38.554Z,93.00
2023-02-08T01:11:08.628Z,93.24
2023-02-08T01:13:36.187Z,94.56
2023-02-08T01:16:11.981Z,93.28
2023-02-08T01:18:40.254Z,93.35
2023-02-08T01:21:12.836Z,93.46
2023-02-08T01:23:39.966Z,92.79
2023-02-08T01:26:07.611Z,92.92
2023-02-08T01:28:34.753Z,91.87
2023-02-08T01:31:08.271Z,92.87
2023-02-08T01:33:35.760Z,93.14
2023-02-08T01:36:02.218Z,93.18
2023-02-08T01:38:28.726Z,93.18
2023-02-08T01:40:55.397Z,94.69
2023-02-08T01:43:27.797Z,93.93
2023-02-08T01:45:55.139Z,93.55
2023-02-08T01:48:21.523Z,93.95
2023-02-08T01:50:57.479Z,92.68
2023-02-08T01:53:26.767Z,93.43
2023-02-08T01:55:57.288Z,92.83
2023-02-08T01:58:26.831Z,93.55
2023-02-08T02:00:53.758Z,93.91
2023-02-08T02:03:23.490Z,94.07
2023-02-08T02:05:54.483Z,94.19
2023-02-08T02:08:20.897Z,93.96
2023-02-08T02:10:49.269Z,94.21
2023-02-08T02:13:22.548Z,95.09
2023-02-08T02:15:50.259Z,94.35
2023-02-08T02:18:28.930Z,93.20
2023-02-08T02:21:10.517Z,93.92
2023-02-08T02:24:03.173Z,92.53
2023-02-08T02:26:58.701Z,94.21
2023-02-08T02:29:31.231Z,93.24
2023-02-08T02:32:43.438Z,94.11
2023-02-08T02:35:15.832Z,94.42
2023-02-08T02:38:10.289Z,92.54
2023-02-08T02:40:42.224Z,93.66
2023-02-08T02:43:42.774Z,94.33
2023-02-08T02:46:21.934Z,93.64
2023-02-08T02:49:11.712Z,93.45
2023-02-08T02:51:47.181Z,93.78
2023-02-08T02:54:26.463Z,94.09
2023-02-08T02:56:59.124Z,94.17
2023-02-08T02:59:27.323Z,95.05
2023-02-08T03:01:55.125Z,94.53
2023-02-08T03:04:33.772Z,96.03
2023-02-08T03:07:21.292Z,94.06
2023-02-08T03:09:53.761Z,96.03
2023-02-08T03:12:59.316Z,94.83
2023-02-08T03:15:45.175Z,93.93
2023-02-08T03:18:48.987Z,94.75
2023-02-08T03:21:36.782Z,94.61
2023-02-08T03:24:22.872Z,94.44
2023-02-08T03:27:01.494Z,95.03
2023-02-08T03:29:35.698Z,95.65
2023-02-08T03:32:31.472Z,95.87
2023-02-08T03:35:07.385Z,95.40
2023-02-08T03:37:38.045Z,95.88
2023-02-08T03:40:19.056Z,95.41
2023-02-08T03:42:48.949Z,95.24
2023-02-08T03:45:22.820Z,96.55
2023-02-08T03:47:52.908Z,95.85
2023-02-08T03:50:22.173Z,95.68
2023-02-08T03:52:50.496Z,96.70
2023-02-08T03:55:20.503Z,95.48
2023-02-08T03:57:53.177Z,97.15
2023-02-08T04:00:21.831Z,96.79
2023-02-08T04:02:59.865Z,96.45
2023-02-08T04:05:26.625Z,97.27
2023-02-08T04:07:53.513Z,96.75
2023-02-08T04:10:20.278Z,97.21
2023-02-08T04:12:48.860Z,95.60
2023-02-08T04:15:16.102Z,96.04
2023-02-08T04:17:42.559Z,95.41
2023-02-08T04:20:09.511Z,96.08
2023-02-08T04:22:37.038Z,97.65
2023-02-08T04:25:03.588Z,95.70
2023-02-08T04:27:30.002Z,96.31
2023-02-08T04:29:56.413Z,95.12
2023-02-08T04:32:22.910Z,95.82
2023-02-08T04:34:49.348Z,95.15
2023-02-08T04:37:15.866Z,96.00
2023-02-08T04:39:42.488Z,95.72
2023-02-08T04:42:09.915Z,95.87
2023-02-08T04:44:39.345Z,95.80
2023-02-08T04:47:05.776Z,96.05
2023-02-08T04:49:32.920Z,96.28
2023-02-08T04:51:59.550Z,96.67
2023-02-08T04:54:26.225Z,97.92
2023-02-08T04:56:52.661Z,96.30
2023-02-08T04:59:19.438Z,96.04
2023-02-08T05:01:45.986Z,96.12
2023-02-08T05:04:12.519Z,96.14
2023-02-08T05:06:39.078Z,96.40
2023-02-08T05:09:08.633Z,96.19
2023-02-08T05:11:35.756Z,96.15
2023-02-08T05:14:02.889Z,96.30
2023-02-08T05:16:29.367Z,98.20
2023-02-08T05:18:56.969Z,98.43
2023-02-08T05:21:23.968Z,98.42
2023-02-08T05:23:51.420Z,97.65
2023-02-08T05:26:18.356Z,97.28
2023-02-08T05:28:44.790Z,95.43
2023-02-08T05:31:14.232Z,95.95
2023-02-08T05:33:40.988Z,97.10
2023-02-08T05:36:07.611Z,97.89
2023-02-08T05:38:34.228Z,97.24
2023-02-08T05:41:00.741Z,96.88
2023-02-08T05:43:27.246Z,95.77
2023-02-08T05:45:53.717Z,96.60
2023-02-08T05:48:20.364Z,96.26
2023-02-08T05:50:46.784Z,97.35
2023-02-08T05:53:13.221Z,97.25
2023-02-08T05:55:39.717Z,96.17
2023-02-08T05:58:06.139Z,97.28
2023-02-08T06:00:32.534Z,97.02
2023-02-08T06:02:59.012Z,96.58
2023-02-08T06:05:25.474Z,97.01
2023-02-08T06:07:51.913Z,97.26
2023-02-08T06:10:18.411Z,95.86
2023-02-08T06:12:44.975Z,96.07
2023-02-08T06:15:11.394Z,96.89
2023-02-08T06:17:37.866Z,98.88
2023-02-08T06:20:05.341Z,98.26
2023-02-08T06:22:34.371Z,96.21
2023-02-08T06:25:00.798Z,96.76
2023-02-08T06:27:27.617Z,96.84
2023-02-08T06:29:54.055Z,96.89
2023-02-08T06:32:20.660Z,97.42
2023-02-08T06:34:48.282Z,97.43
2023-02-08T06:37:14.688Z,97.83
2023-02-08T06:39:41.437Z,97.97
2023-02-08T06:42:08.120Z,97.73
2023-02-08T06:44:34.603Z,98.48
2023-02-08T06:47:01.273Z,97.87
2023-02-08T06:49:27.726Z,98.06
2023-02-08T06:51:54.235Z,97.41
2023-02-08T06:54:20.667Z,97.31
2023-02-08T06:56:47.287Z,96.86
2023-02-08T06:59:13.844Z,97.89
2023-02-08T07:01:40.251Z,98.44
2023-02-08T07:04:06.873Z,97.92
2023-02-08T07:06:33.764Z,97.48
2023-02-08T07:09:00.343Z,98.25
2023-02-08T07:11:26.828Z,98.65
2023-02-08T07:13:54.585Z,98.34
2023-02-08T07:16:21.533Z,97.15
2023-02-08T07:18:48.173Z,95.54
2023-02-08T07:21:14.582Z,94.86
2023-02-08T07:23:41.530Z,93.34
2023-02-08T07:26:12.003Z,93.39
2023-02-08T07:28:38.788Z,92.50
2023-02-08T07:31:10.522Z,92.40
2023-02-08T07:33:38.035Z,91.24
2023-02-08T07:36:05.624Z,89.40
2023-02-08T07:38:33.753Z,88.40
2023-02-08T07:41:12.007Z,86.27
2023-02-08T07:43:42.952Z,84.46
2023-02-08T07:46:18.511Z,82.40
2023-02-08T07:48:45.220Z,81.63
2023-02-08T07:51:12.876Z,81.68
2023-02-08T07:53:39.626Z,79.59
2023-02-08T07:56:06.751Z,79.91
2023-02-08T07:58:33.262Z,79.63
2023-02-08T08:01:06.902Z,79.43
2023-02-08T08:03:38.946Z,77.67
2023-02-08T08:06:05.662Z,77.17
2023-02-08T08:08:32.062Z,76.80
2023-02-08T08:10:58.495Z,75.21
2023-02-08T08:13:24.950Z,73.82
2023-02-08T08:15:51.522Z,73.47
2023-02-08T08:18:17.965Z,72.29
2023-02-08T08:20:44.461Z,72.05
2023-02-08T08:23:11.017Z,72.94
2023-02-08T08:25:37.992Z,72.30
2023-02-08T08:28:05.065Z,72.10
2023-02-08T08:30:34.042Z,71.43
2023-02-08T08:33:00.650Z,70.54
2023-02-08T08:35:27.150Z,71.13
2023-02-08T08:37:54.595Z,71.46
2023-02-08T08:40:21.020Z,70.47
2023-02-08T08:42:47.414Z,69.33
2023-02-08T08:45:13.829Z,68.38
2023-02-08T08:47:47.781Z,67.73
2023-02-08T08:50:14.711Z,66.35
2023-02-08T08:52:42.646Z,66.75
2023-02-08T08:55:09.349Z,63.80
2023-02-08T08:57:35.780Z,64.67
2023-02-08T09:00:02.528Z,64.79
2023-02-08T09:02:28.964Z,63.98
2023-02-08T09:04:55.395Z,64.03
2023-02-08T09:07:21.979Z,63.97
2023-02-08T09:09:48.639Z,63.15
2023-02-08T09:12:15.895Z,61.54
2023-02-08T09:14:44.836Z,61.67
2023-02-08T09:17:12.007Z,62.46
2023-02-08T09:19:38.596Z,61.06
2023-02-08T09:22:08.563Z,62.64
2023-02-08T09:24:35.608Z,61.56
2023-02-08T09:27:02.088Z,60.40
2023-02-08T09:29:30.173Z,59.55
2023-02-08T09:31:57.200Z,59.55
2023-02-08T09:34:23.969Z,57.31
2023-02-08T09:36:50.739Z,58.59
2023-02-08T09:39:20.911Z,56.72
2023-02-08T09:42:05.337Z,56.56
2023-02-08T09:44:52.785Z,57.50
2023-02-08T09:47:22.483Z,57.20
2023-02-08T09:49:58.902Z,56.47
2023-02-08T09:52:34.165Z,54.56
2023-02-08T09:55:10.565Z,56.12
2023-02-08T09:57:38.498Z,55.50
2023-02-08T10:00:15.004Z,55.20
2023-02-08T10:02:44.315Z,55.16
2023-02-08T10:05:14.763Z,54.84
2023-02-08T10:07:42.536Z,52.76
2023-02-08T10:10:29.306Z,50.29
2023-02-08T10:13:41.152Z,51.01
2023-02-08T10:16:39.137Z,51.23
2023-02-08T10:19:35.020Z,50.31
2023-02-08T10:22:30.799Z,50.56
2023-02-08T10:25:27.947Z,51.36
2023-02-08T10:28:26.287Z,51.24
2023-02-08T10:31:16.174Z,50.69
2023-02-08T10:34:02.292Z,49.74
2023-02-08T10:36:34.147Z,51.42
2023-02-08T10:39:02.726Z,51.37
2023-02-08T10:41:36.610Z,52.06
2023-02-08T10:44:48.471Z,52.73
2023-02-08T10:47:48.335Z,50.73
2023-02-08T10:50:29.227Z,49.66
2023-02-08T10:52:56.641Z,50.61
2023-02-08T10:55:24.805Z,49.86
2023-02-08T10:57:55.917Z,50.80
2023-02-08T11:00:31.174Z,49.81
2023-02-08T11:03:01.581Z,50.48
2023-02-08T11:05:32.719Z,49.75
2023-02-08T11:08:22.959Z,50.73
2023-02-08T11:11:06.224Z,49.59
2023-02-08T11:13:45.016Z,49.07
2023-02-08T11:16:20.315Z,49.67
2023-02-08T11:18:53.872Z,49.21
2023-02-08T11:21:34.977Z,49.08
2023-02-08T11:24:22.593Z,49.75
2023-02-08T11:26:50.151Z,49.80
2023-02-08T11:29:26.177Z,49.69
2023-02-08T11:31:57.680Z,49.52
2023-02-08T11:34:25.388Z,49.35
2023-02-08T11:36:55.067Z,49.75
2023-02-08T11:39:27.025Z,49.73
2023-02-08T11:41:57.847Z,50.02
2023-02-08T11:44:36.542Z,50.00
2023-02-08T11:47:05.750Z,49.76
2023-02-08T11:49:43.861Z,49.14
2023-02-08T11:52:22.585Z,47.26
2023-02-08T11:54:49.025Z,47.88
2023-02-08T11:57:24.233Z,47.67
2023-02-08T12:00:09.882Z,49.77
2023-02-08T12:02:39.069Z,49.22
2023-02-08T12:05:13.626Z,49.79
2023-02-08T12:08:38.856Z,50.13
2023-02-08T12:11:11.075Z,49.60
2023-02-08T12:13:37.451Z,50.00
2023-02-08T12:16:20.296Z,48.27
2023-02-08T12:18:46.716Z,48.65
2023-02-08T12:21:20.857Z,48.75
2023-02-08T12:23:54.221Z,47.87
2023-02-08T12:26:34.082Z,49.31
2023-02-08T12:29:11.267Z,48.82
2023-02-08T12:31:52.604Z,49.25
2023-02-08T12:34:31.324Z,48.19
2023-02-08T12:37:44.396Z,47.45
2023-02-08T12:40:57.704Z,47.28
2023-02-08T12:43:58.768Z,47.29
2023-02-08T12:46:28.232Z,46.40
2023-02-08T12:48:54.616Z,48.21
2023-02-08T12:51:36.062Z,47.98
2023-02-08T12:54:35.925Z,47.37
2023-02-08T12:57:05.582Z,48.09
2023-02-08T12:59:40.060Z,47.63
2023-02-08T13:02:18.334Z,48.25
2023-02-08T13:04:48.946Z,48.03
2023-02-08T13:07:25.794Z,47.96
2023-02-08T13:10:02.609Z,46.75
2023-02-08T13:12:44.105Z,47.88
2023-02-08T13:15:29.775Z,47.26
2023-02-08T13:18:10.305Z,47.20
2023-02-08T13:20:51.148Z,47.19
2023-02-08T13:23:43.483Z,47.83
2023-02-08T13:26:34.415Z,48.80
2023-02-08T13:29:02.584Z,48.40
2023-02-08T13:31:37.695Z,47.42
2023-02-08T13:34:17.544Z,46.61
2023-02-08T13:36:55.625Z,46.70
2023-02-08T13:39:36.197Z,46.62
2023-02-08T13:42:05.244Z,44.72
2023-02-08T13:44:36.700Z,44.56
2023-02-08T13:47:04.868Z,44.24
2023-02-08T13:49:42.350Z,45.02
2023-02-08T13:52:10.553Z,45.76
2023-02-08T13:54:37.344Z,44.83
2023-02-08T13:57:25.747Z,45.97
2023-02-08T14:00:22.498Z,46.04
2023-02-08T14:03:03.930Z,46.21
2023-02-08T14:05:45.054Z,45.18
2023-02-08T14:08:54.177Z,45.22
2023-02-08T14:11:35.360Z,43.76
2023-02-08T14:14:16.356Z,44.26
2023-02-08T14:17:04.556Z,44.83
2023-02-08T14:20:02.178Z,45.47
2023-02-08T14:22:36.346Z,44.99
2023-02-08T14:25:05.387Z,44.93
2023-02-08T14:27:52.538Z,44.88
2023-02-08T14:30:18.940Z,46.08
2023-02-08T14:32:48.760Z,45.13
2023-02-08T14:35:15.159Z,45.13
2023-02-08T14:37:44.361Z,45.26
2023-02-08T14:40:16.765Z,45.40
2023-02-08T14:42:55.814Z,44.29
2023-02-08T14:45:35.152Z,45.14
2023-02-08T14:48:31.478Z,45.83
2023-02-08T14:51:10.446Z,44.60
2023-02-08T14:53:44.212Z,44.84
2023-02-08T14:56:24.205Z,45.47
2023-02-08T14:58:56.131Z,44.68
2023-02-08T15:01:28.627Z,44.88
2023-02-08T15:04:00.549Z,45.53
2023-02-08T15:06:37.155Z,45.87
2023-02-08T15:09:25.185Z,45.52
2023-02-08T15:11:59.911Z,47.21
2023-02-08T15:14:27.442Z,46.04
2023-02-08T15:16:55.477Z,46.91
2023-02-08T15:19:43.113Z,47.03
2023-02-08T15:22:24.616Z,47.72
2023-02-08T15:24:54.814Z,48.21
2023-02-08T15:27:26.288Z,49.00
2023-02-08T15:29:53.026Z,49.99
2023-02-08T15:32:22.433Z,49.56
2023-02-08T15:34:58.848Z,50.08
2023-02-08T15:37:26.426Z,49.70
2023-02-08T15:39:57.849Z,50.12
2023-02-08T15:42:28.843Z,50.10
2023-02-08T15:44:56.272Z,50.35
2023-02-08T15:47:30.649Z,50.85
2023-02-08T15:49:58.137Z,51.12
2023-02-08T15:52:28.595Z,51.63
2023-02-08T15:54:55.495Z,51.92
2023-02-08T15:57:28.018Z,52.33
2023-02-08T15:59:54.888Z,52.74
2023-02-08T16:02:32.045Z,53.18
2023-02-08T16:05:00.172Z,52.50
2023-02-08T16:07:37.274Z,51.78
2023-02-08T16:10:05.456Z,52.22
2023-02-08T16:12:32.429Z,52.36
2023-02-08T16:14:59.088Z,52.85
2023-02-08T16:17:37.228Z,53.50
2023-02-08T16:20:22.165Z,54.03
2023-02-08T16:23:20.912Z,54.84
2023-02-08T16:25:50.414Z,55.37
2023-02-08T16:28:26.935Z,55.56
2023-02-08T16:30:55.630Z,56.48
2023-02-08T16:33:22.287Z,57.12
2023-02-08T16:35:49.499Z,58.42
2023-02-08T16:38:23.476Z,58.61
2023-02-08T16:40:52.386Z,59.56
2023-02-08T16:43:23.307Z,60.76
2023-02-08T16:46:08.704Z,60.22
2023-02-08T16:48:40.123Z,60.43
2023-02-08T16:51:12.549Z,59.91
2023-02-08T16:53:42.410Z,60.45
2023-02-08T16:56:11.012Z,60.22
2023-02-08T16:58:38.051Z,60.96
2023-02-08T17:01:04.914Z,61.51
2023-02-08T17:03:32.737Z,62.36
2023-02-08T17:06:00.995Z,62.82
2023-02-08T17:08:27.892Z,62.73
2023-02-08T17:10:58.700Z,63.77
2023-02-08T17:13:27.079Z,63.65
2023-02-08T17:15:54.356Z,64.79
2023-02-08T17:18:21.155Z,64.97
2023-02-08T17:20:47.747Z,64.14
2023-02-08T17:23:15.851Z,64.08
2023-02-08T17:25:43.312Z,64.65
2023-02-08T17:28:17.119Z,64.60
2023-02-08T17:30:44.559Z,64.06
2023-02-08T17:33:18.439Z,64.25
2023-02-08T17:35:52.434Z,64.79
2023-02-08T17:38:20.433Z,64.09
2023-02-08T17:40:47.683Z,64.40
2023-02-08T17:43:14.490Z,65.14
2023-02-08T17:45:43.720Z,65.33
2023-02-08T17:48:13.323Z,64.94
2023-02-08T17:50:43.969Z,65.60
2023-02-08T17:53:10.794Z,65.21
2023-02-08T17:55:37.251Z,65.88
2023-02-08T17:58:03.675Z,66.40
2023-02-08T18:00:30.099Z,66.24
2023-02-08T18:02:58.464Z,66.58
2023-02-08T18:05:28.536Z,66.57
2023-02-08T18:07:56.664Z,66.32
2023-02-08T18:10:25.311Z,66.46
2023-02-08T18:12:52.132Z,66.72
2023-02-08T18:15:21.693Z,67.36
2023-02-08T18:17:50.265Z,67.18
2023-02-08T18:20:17.086Z,67.45
2023-02-08T18:22:43.882Z,67.95
2023-02-08T18:25:11.768Z,68.32
2023-02-08T18:27:38.657Z,67.96
2023-02-08T18:30:05.767Z,67.77
2023-02-08T18:32:32.272Z,68.24
2023-02-08T18:34:58.717Z,68.51
2023-02-08T18:37:25.602Z,68.67
2023-02-08T18:39:52.385Z,68.33
2023-02-08T18:42:19.039Z,68.65
2023-02-08T18:44:45.738Z,68.90
2023-02-08T18:47:12.207Z,68.92
2023-02-08T18:49:40.956Z,68.96
2023-02-08T18:52:12.686Z,68.95
2023-02-08T18:54:40.053Z,68.93
2023-02-08T18:57:09.513Z,69.51
2023-02-08T18:59:37.033Z,69.86
2023-02-08T19:02:05.641Z,69.72
2023-02-08T19:04:37.083Z,69.79
2023-02-08T19:07:04.058Z,69.91
2023-02-08T19:09:30.504Z,70.18
2023-02-08T19:11:56.943Z,70.14
2023-02-08T19:14:30.572Z,70.00
2023-02-08T19:16:56.995Z,70.20
2023-02-08T19:19:23.471Z,70.95
2023-02-08T19:21:49.901Z,70.14
2023-02-08T19:24:16.418Z,71.01
2023-02-08T19:26:42.884Z,71.07
2023-02-08T19:29:13.840Z,70.68
2023-02-08T19:31:41.293Z,70.42
2023-02-08T19:34:12.189Z,70.62
2023-02-08T19:36:44.076Z,72.04
2023-02-08T19:39:20.433Z,72.63
2023-02-08T19:41:47.862Z,72.95
2023-02-08T19:44:17.264Z,73.04
2023-02-08T19:46:51.265Z,73.00
2023-02-08T19:49:18.494Z,73.58
2023-02-08T19:51:45.465Z,73.73
2023-02-08T19:54:17.411Z,73.80
2023-02-08T19:56:44.566Z,73.68
2023-02-08T19:59:22.981Z,74.88
2023-02-08T20:01:49.639Z,75.25
2023-02-08T20:04:16.141Z,74.81
2023-02-08T20:06:44.969Z,76.42
2023-02-08T20:09:12.588Z,77.44
2023-02-08T20:11:55.849Z,77.72
2023-02-08T20:14:23.617Z,78.39
2023-02-08T20:16:50.135Z,77.78
2023-02-08T20:19:16.651Z,77.25
2023-02-08T20:21:45.183Z,79.72
2023-02-08T20:24:11.797Z,79.52
2023-02-08T20:26:40.698Z,81.29
2023-02-08T20:29:08.230Z,81.77
2023-02-08T20:31:37.621Z,81.77
2023-02-08T20:34:07.861Z,81.28
2023-02-08T20:36:39.813Z,79.48
2023-02-08T20:39:08.668Z,81.61
2023-02-08T20:41:36.258Z,80.74
2023-02-08T20:44:02.652Z,81.93
2023-02-08T20:46:34.718Z,82.73
2023-02-08T20:49:03.381Z,82.40
2023-02-08T20:51:30.453Z,83.73
2023-02-08T20:53:58.650Z,82.94
2023-02-08T20:56:28.290Z,83.79
2023-02-08T20:58:55.417Z,83.68
2023-02-08T21:01:28.075Z,85.32
2023-02-08T21:03:56.527Z,83.64
2023-02-08T21:06:29.558Z,84.66
2023-02-08T21:09:01.822Z,83.95
2023-02-08T21:11:31.117Z,84.18
2023-02-08T21:13:58.248Z,85.25
2023-02-08T21:16:25.633Z,85.59
2023-02-08T21:18:52.078Z,83.59
2023-02-08T21:21:19.441Z,84.42
2023-02-08T21:23:45.920Z,86.24
2023-02-08T21:26:15.838Z,84.42
2023-02-08T21:28:43.772Z,85.43
2023-02-08T21:31:16.706Z,85.52
2023-02-08T21:33:43.954Z,85.05
2023-02-08T21:36:14.373Z,85.73
2023-02-08T21:38:41.628Z,86.11
2023-02-08T21:41:15.364Z,86.43
2023-02-08T21:43:42.268Z,87.49
2023-02-08T21:46:09.722Z,86.84
2023-02-08T21:48:54.846Z,86.75
2023-02-08T21:51:41.868Z,87.64
2023-02-08T21:54:30.847Z,87.22
2023-02-08T21:57:01.755Z,87.47
2023-02-08T21:59:32.013Z,87.93
2023-02-08T22:02:01.689Z,88.63
2023-02-08T22:04:30.641Z,87.88
2023-02-08T22:06:57.053Z,87.67
2023-02-08T22:09:23.503Z,88.48
2023-02-08T22:11:52.600Z,86.75
2023-02-08T22:14:19.030Z,87.82
2023-02-08T22:16:46.914Z,88.01
2023-02-08T22:19:13.354Z,88.66
2023-02-08T22:21:39.768Z,89.08
2023-02-08T22:24:06.571Z,88.37
2023-02-08T22:26:33.163Z,87.50
2023-02-08T22:28:59.694Z,89.35
2023-02-08T22:31:26.237Z,89.18
2023-02-08T22:33:53.462Z,88.33
2023-02-08T22:36:20.663Z,89.20
2023-02-08T22:38:47.184Z,90.76
2023-02-08T22:41:15.622Z,90.24
2023-02-08T22:43:42.683Z,89.12
2023-02-08T22:46:09.182Z,90.85
2023-02-08T22:48:35.697Z,90.63
2023-02-08T22:51:09.529Z,90.17
2023-02-08T22:53:36.146Z,90.57
2023-02-08T22:56:02.669Z,90.09
2023-02-08T22:58:29.291Z,91.05
2023-02-08T23:00:56.174Z,89.95
2023-02-08T23:03:22.993Z,90.00
2023-02-08T23:05:50.557Z,90.88
2023-02-08T23:08:19.254Z,90.85
2023-02-08T23:10:46.114Z,89.88
2023-02-08T23:13:13.518Z,88.80
2023-02-08T23:15:42.302Z,88.14
2023-02-08T23:18:09.444Z,89.06
2023-02-08T23:20:38.362Z,87.20
2023-02-08T23:23:04.816Z,87.83
2023-02-08T23:25:31.268Z,86.66
2023-02-08T23:28:01.097Z,86.07
2023-02-08T23:30:27.649Z,85.17
2023-02-08T23:32:54.120Z,85.74
2023-02-08T23:35:20.583Z,84.96
2023-02-08T23:37:47.069Z,83.71
2023-02-08T23:40:13.747Z,82.46
2023-02-08T23:42:40.245Z,82.65
2023-02-08T23:45:07.447Z,82.04
2023-02-08T23:47:34.568Z,82.00
2023-02-08T23:50:01.011Z,81.48
2023-02-08T23:52:29.578Z,80.76
2023-02-08T23:54:55.992Z,80.28
2023-02-08T23:57:22.444Z,80.40
2023-02-08T23:59:48.960Z,79.99
